Terminal Aerodrome Forecast
Issued by NWS

Home | Current Version | Previous Version | Text Only | Print | Product List | Glossary On
Versions: 1 2 3 4 5 6 7 8 9 10 11 12 13 14 15 16 17 18 19 20 21
000
FTUS43 KILX 230218 AAC
TAFBMI
TAF AMD
KBMI 230218Z 2302/2324 18015KT P6SM OVC008
     FM230500 18009KT P6SM BKN006
     FM230800 22009KT 5SM SHRA VCTS BKN010CB OVC015
     FM231200 27009KT P6SM BKN015
     FM231600 32009KT P6SM BKN035=

USA.gov is the U.S. government's official web portal to all federal, state and local government web resources and services.